Time;durP1;ratioP1;P1;durP2;ratioP2;P2;SDS_P1;SDS_P2;PMS_P1;PMS_P2;Temp;Humidity;BMP_temperature;BMP_pressure;BME280_temperature;BME280_humidity;BME280_pressure;Samples;Min_cycle;Max_cycle;Signal;HPM_P1;HPM_P2
2022/09/17 00:02:05;;;;;;;4.00;1.10;;;;;;;9.37;100.00;99789.31;5096935;28;20070;-84
2022/09/17 00:04:31;;;;;;;7.32;1.50;;;;;;;9.45;100.00;99786.53;5096983;28;20050;-86
2022/09/17 00:06:57;;;;;;;3.50;1.10;;;;;;;9.33;100.00;99784.56;5115538;28;20024;-84
2022/09/17 00:09:22;;;;;;;4.47;1.30;;;;;;;9.23;100.00;99792.31;5114957;28;20082;-85
2022/09/17 00:11:47;;;;;;;5.40;1.20;;;;;;;9.29;100.00;99791.78;5114925;28;20024;-83
2022/09/17 00:14:15;;;;;;;6.57;1.70;;;;;;;9.27;100.00;99795.97;5096623;28;20034;-82
2022/09/17 00:16:44;;;;;;;7.78;1.75;;;;;;;9.28;100.00;99790.19;5115589;28;20034;-83
2022/09/17 00:19:14;;;;;;;4.53;1.08;;;;;;;9.25;100.00;99809.09;5097069;28;20027;-85
2022/09/17 00:21:41;;;;;;;8.07;1.63;;;;;;;9.27;100.00;99802.19;5096355;28;20116;-85
2022/09/17 00:24:07;;;;;;;4.20;0.90;;;;;;;9.41;100.00;99798.41;5095946;28;20032;-83
2022/09/17 00:26:34;;;;;;;5.80;1.25;;;;;;;9.55;100.00;99807.03;5097166;28;20049;-84
2022/09/17 00:28:59;;;;;;;3.10;0.93;;;;;;;9.56;100.00;99798.53;5080589;28;20046;-82
2022/09/17 00:31:27;;;;;;;8.07;2.13;;;;;;;9.41;100.00;99803.84;5115149;28;20027;-84
2022/09/17 00:33:53;;;;;;;6.15;1.70;;;;;;;9.44;100.00;99797.72;5115500;28;20031;-85
2022/09/17 00:36:19;;;;;;;5.78;1.50;;;;;;;9.37;100.00;99797.47;5096348;28;20042;-85
2022/09/17 00:38:50;;;;;;;;;;;;;;;9.33;100.00;99787.25;5093519;28;20445;-88
2022/09/17 00:41:16;;;;;;;4.20;1.58;;;;;;;9.30;100.00;99782.50;5093632;28;19911;-84
2022/09/17 00:43:50;;;;;;;4.80;1.30;;;;;;;9.44;100.00;99786.88;5093384;28;20027;-84
2022/09/17 00:46:24;;;;;;;5.50;1.38;;;;;;;9.39;100.00;99787.84;5095654;28;20035;-83
2022/09/17 00:48:53;;;;;;;4.63;1.50;;;;;;;9.37;100.00;99792.81;5093871;28;20047;-87
2022/09/17 00:51:24;;;;;;;5.65;1.65;;;;;;;9.44;100.00;99800.44;5095192;28;20073;-84
2022/09/17 00:53:50;;;;;;;7.47;2.47;;;;;;;9.45;100.00;99805.56;5094079;28;20019;-86
2022/09/17 00:56:27;;;;;;;4.85;1.45;;;;;;;9.40;100.00;99794.06;5093347;28;20016;-86
2022/09/17 00:58:53;;;;;;;3.13;1.00;;;;;;;9.51;100.00;99809.63;5095350;28;20031;-87
2022/09/17 01:01:19;;;;;;;2.67;0.85;;;;;;;9.50;100.00;99807.25;5094120;28;20051;-86
2022/09/17 01:03:44;;;;;;;5.15;1.08;;;;;;;9.47;100.00;99813.38;5092731;28;20077;-84
2022/09/17 01:06:33;;;;;;;6.28;1.45;;;;;;;9.46;100.00;99809.06;5075654;28;20480;-84
2022/09/17 01:09:36;;;;;;;4.32;1.20;;;;;;;9.42;100.00;99802.72;5094092;28;20028;-83
2022/09/17 01:12:30;;;;;;;4.43;1.17;;;;;;;9.60;100.00;99813.06;5093781;28;20115;-83
2022/09/17 01:15:17;;;;;;;3.72;1.25;;;;;;;9.58;100.00;99812.63;5093588;28;20024;-82
2022/09/17 01:17:50;;;;;;;;;;;;;;;9.53;100.00;99814.72;5093844;28;20032;-81
2022/09/17 01:20:46;;;;;;;4.00;1.20;;;;;;;9.55;100.00;99812.47;5093789;28;19916;-83
2022/09/17 01:23:33;;;;;;;4.18;1.17;;;;;;;9.54;100.00;99811.69;5093225;28;20468;-83
2022/09/17 01:26:17;;;;;;;3.65;1.40;;;;;;;9.46;100.00;99818.00;5091849;28;20028;-87
2022/09/17 01:29:17;;;;;;;5.50;1.15;;;;;;;9.39;100.00;99817.72;5093169;28;20023;-84
2022/09/17 01:31:45;;;;;;;4.35;1.35;;;;;;;9.49;100.00;99821.97;5091678;28;20035;-85
2022/09/17 01:34:25;;;;;;;4.75;1.10;;;;;;;9.43;100.00;99820.59;5091739;28;20073;-85
2022/09/17 01:37:08;;;;;;;3.83;1.65;;;;;;;9.31;100.00;99816.69;5091849;28;20450;-86
2022/09/17 01:39:48;;;;;;;4.22;1.58;;;;;;;9.40;100.00;99813.09;5091485;28;20048;-85
2022/09/17 01:42:33;;;;;;;5.00;1.45;;;;;;;9.36;100.00;99807.53;5092849;28;20057;-84
2022/09/17 01:45:01;;;;;;;3.97;1.30;;;;;;;9.41;100.00;99820.16;5093109;28;20077;-85
2022/09/17 01:47:38;;;;;;;7.28;1.63;;;;;;;9.39;100.00;99819.66;5092989;28;20051;-85
2022/09/17 01:50:09;;;;;;;7.93;1.48;;;;;;;9.46;100.00;99817.22;5091209;28;20481;-84
2022/09/17 01:52:38;;;;;;;7.85;1.52;;;;;;;9.39;100.00;99808.78;5092962;28;20039;-85
2022/09/17 01:55:08;;;;;;;7.50;1.70;;;;;;;9.34;100.00;99815.22;5073776;28;20048;-84
2022/09/17 01:57:52;;;;;;;5.25;1.77;;;;;;;9.37;100.00;99813.75;5092927;28;20031;-85
2022/09/17 02:00:19;;;;;;;6.55;1.70;;;;;;;9.27;100.00;99820.41;5092955;28;20048;-84
2022/09/17 02:03:07;;;;;;;9.38;2.78;;;;;;;9.36;100.00;99834.72;5092355;28;20024;-83
2022/09/17 02:05:51;;;;;;;4.90;1.55;;;;;;;9.37;100.00;99822.72;5092761;28;20024;-84
2022/09/17 02:08:25;;;;;;;8.75;1.67;;;;;;;9.50;100.00;99818.13;5090998;28;20446;-83
2022/09/17 02:11:03;;;;;;;3.67;1.08;;;;;;;9.42;100.00;99821.72;5092399;28;20484;-85
2022/09/17 02:13:40;;;;;;;10.95;2.15;;;;;;;9.34;100.00;99824.19;5088656;28;20038;-84
2022/09/17 02:16:13;;;;;;;12.35;2.67;;;;;;;9.31;100.00;99822.13;5092258;28;20024;-84
2022/09/17 02:18:50;;;;;;;6.15;1.40;;;;;;;9.56;100.00;99828.44;5092234;28;20028;-84
2022/09/17 02:21:38;;;;;;;6.47;1.55;;;;;;;9.53;100.00;99831.84;5089993;28;20035;-85
2022/09/17 02:24:13;;;;;;;11.43;2.20;;;;;;;9.54;100.00;99836.13;5090912;28;20498;-82
2022/09/17 02:26:44;;;;;;;7.85;2.25;;;;;;;9.62;100.00;99834.47;5092193;28;20032;-84
2022/09/17 02:29:17;;;;;;;6.45;1.80;;;;;;;9.55;100.00;99832.28;5092110;28;20031;-84
2022/09/17 02:31:42;;;;;;;10.52;1.98;;;;;;;9.48;100.00;99834.78;5092428;28;20020;-86
2022/09/17 02:34:08;;;;;;;4.25;1.77;;;;;;;9.57;100.00;99831.97;5092069;28;20173;-86
2022/09/17 02:36:34;;;;;;;6.22;1.23;;;;;;;9.63;100.00;99825.19;5092201;28;20031;-85
2022/09/17 02:39:01;;;;;;;5.03;1.73;;;;;;;9.60;100.00;99832.09;5099874;28;20044;-84
2022/09/17 02:42:21;;;;;;;10.25;1.40;;;;;;;9.43;100.00;99826.03;5112680;28;20413;-84
2022/09/17 02:44:56;;;;;;;5.20;1.67;;;;;;;9.61;100.00;99835.63;5009725;28;20108;-84
2022/09/17 02:48:15;;;;;;;5.97;1.88;;;;;;;9.70;100.00;99827.34;5009608;28;20026;-84
2022/09/17 02:50:46;;;;;;;5.25;1.23;;;;;;;9.47;100.00;99840.53;5069257;28;20499;-86
2022/09/17 02:53:37;;;;;;;3.20;0.98;;;;;;;9.66;100.00;99840.84;5052732;28;20489;-84
2022/09/17 02:56:33;;;;;;;7.13;1.10;;;;;;;9.61;99.94;99838.34;5097428;28;20110;-84
2022/09/17 02:59:23;;;;;;;2.78;1.08;;;;;;;9.65;100.00;99841.97;5112048;28;20415;-85
2022/09/17 03:02:12;;;;;;;5.03;1.50;;;;;;;9.47;100.00;99841.34;5109449;28;20032;-86
2022/09/17 03:04:38;;;;;;;3.00;1.10;;;;;;;9.46;100.00;99838.94;5112101;28;20028;-84
2022/09/17 03:07:10;;;;;;;3.72;0.98;;;;;;;9.44;100.00;99833.06;5112435;28;20100;-85
2022/09/17 03:09:36;;;;;;;7.13;1.00;;;;;;;9.47;100.00;99848.69;5112155;28;20117;-86
2022/09/17 03:12:03;;;;;;;5.28;1.45;;;;;;;9.49;100.00;99844.50;5093725;28;20431;-85
2022/09/17 03:14:28;;;;;;;;;;;;;;;9.29;100.00;99857.00;5093809;28;20031;-83
2022/09/17 03:16:53;;;;;;;9.27;1.70;;;;;;;9.31;100.00;99848.50;5093377;28;20329;-85
2022/09/17 03:19:19;;;;;;;7.27;1.50;;;;;;;9.26;100.00;99851.44;5093313;28;20422;-84
2022/09/17 03:21:44;;;;;;;6.87;0.97;;;;;;;9.23;100.00;99847.44;5093507;28;20427;-88
2022/09/17 03:24:10;;;;;;;5.00;2.08;;;;;;;9.23;100.00;99844.72;5112179;28;20278;-86
2022/09/17 03:26:36;;;;;;;6.72;1.33;;;;;;;9.26;100.00;99844.06;5093632;28;20035;-87
2022/09/17 03:29:02;;;;;;;;;;;;;;;9.32;100.00;99839.22;5112309;28;20115;-85
2022/09/17 03:31:28;;;;;;;7.47;1.20;;;;;;;9.38;100.00;99828.94;5093609;28;19939;-87
2022/09/17 03:33:53;;;;;;;5.18;1.15;;;;;;;9.24;100.00;99831.97;5093630;28;20032;-85
2022/09/17 03:36:19;;;;;;;16.95;1.83;;;;;;;9.23;100.00;99833.84;5093514;28;20453;-86
2022/09/17 03:38:44;;;;;;;4.20;1.58;;;;;;;9.27;100.00;99842.94;5111426;28;20452;-86
2022/09/17 03:41:10;;;;;;;3.50;0.93;;;;;;;9.28;100.00;99839.09;5093313;28;20031;-85
2022/09/17 03:43:38;;;;;;;5.88;1.42;;;;;;;9.31;99.52;99846.59;5093386;28;20376;-85
2022/09/17 03:46:05;;;;;;;3.58;1.20;;;;;;;9.41;99.04;99852.75;5111876;28;20544;-84
2022/09/17 03:48:31;;;;;;;;;;;;;;;9.34;99.01;99851.34;5093807;28;20377;-83
2022/09/17 03:50:56;;;;;;;3.92;1.40;;;;;;;9.35;98.87;99847.50;5111888;28;20017;-85
2022/09/17 03:53:23;;;;;;;4.75;1.80;;;;;;;9.42;98.43;99855.13;5111674;28;20019;-85
2022/09/17 03:55:49;;;;;;;5.65;1.23;;;;;;;9.47;97.94;99852.22;5111406;28;20035;-84
2022/09/17 03:58:14;;;;;;;4.72;1.10;;;;;;;9.61;96.87;99857.38;5115664;28;20024;-84
2022/09/17 04:00:40;;;;;;;4.90;1.27;;;;;;;9.51;95.85;99852.31;5126657;28;20026;-85
2022/09/17 04:03:06;;;;;;;4.53;1.10;;;;;;;9.56;95.38;99861.06;5121163;28;20103;-84
2022/09/17 04:05:32;;;;;;;4.15;1.48;;;;;;;9.55;95.36;99858.69;5120780;28;20548;-89
2022/09/17 04:07:57;;;;;;;5.28;1.92;;;;;;;9.52;95.27;99854.72;5097395;28;20031;-86
2022/09/17 04:10:23;;;;;;;6.15;1.15;;;;;;;9.59;94.75;99856.91;5115390;28;20028;-85
2022/09/17 04:12:48;;;;;;;4.00;1.33;;;;;;;9.61;94.80;99855.44;5097226;28;20024;-85
2022/09/17 04:15:13;;;;;;;9.77;1.55;;;;;;;9.64;95.18;99859.41;5096446;28;20028;-87
2022/09/17 04:17:38;;;;;;;4.77;1.10;;;;;;;9.56;95.12;99861.06;5115504;28;20110;-88
2022/09/17 04:20:05;;;;;;;5.60;0.80;;;;;;;9.60;95.08;99861.22;5115329;28;20760;-84
2022/09/17 04:22:32;;;;;;;6.05;1.40;;;;;;;9.54;95.36;99855.16;5096631;28;20483;-85
2022/09/17 04:24:57;;;;;;;5.20;1.02;;;;;;;9.54;95.59;99857.09;5114968;28;20023;-86
2022/09/17 04:27:23;;;;;;;3.30;1.40;;;;;;;9.51;96.02;99868.63;5114929;28;20090;-86
2022/09/17 04:29:48;;;;;;;4.28;0.98;;;;;;;9.51;96.61;99863.19;5114948;28;20107;-85
2022/09/17 04:32:15;;;;;;;3.30;0.87;;;;;;;9.47;96.53;99863.06;5115008;28;20088;-86
2022/09/17 04:34:40;;;;;;;3.55;0.93;;;;;;;9.50;96.66;99856.19;5096865;28;20337;-83
2022/09/17 04:37:07;;;;;;;5.20;1.13;;;;;;;9.51;96.28;99855.84;5114613;28;20107;-83
2022/09/17 04:39:32;;;;;;;4.10;0.88;;;;;;;9.52;96.31;99870.22;5114023;28;20035;-85
2022/09/17 04:41:58;;;;;;;4.17;1.17;;;;;;;9.54;96.41;99863.31;5114636;28;20396;-85
2022/09/17 04:44:23;;;;;;;8.02;1.38;;;;;;;9.62;95.81;99864.38;5114695;28;20027;-86
2022/09/17 04:46:48;;;;;;;9.47;1.33;;;;;;;9.56;95.59;99857.53;5096668;28;20062;-86
2022/09/17 04:49:15;;;;;;;4.65;1.08;;;;;;;9.57;95.23;99862.69;5114235;28;20051;-85
2022/09/17 04:51:40;;;;;;;4.25;0.80;;;;;;;9.54;95.07;99854.38;5114399;28;20027;-83
2022/09/17 04:54:06;;;;;;;3.53;0.73;;;;;;;9.60;95.55;99864.72;5095967;28;20031;-85
2022/09/17 04:56:31;;;;;;;4.63;1.27;;;;;;;9.60;95.76;99867.44;5114020;28;20489;-84
2022/09/17 04:58:57;;;;;;;8.07;1.40;;;;;;;9.64;95.05;99870.28;5095605;28;20377;-85
2022/09/17 05:01:23;;;;;;;5.28;0.98;;;;;;;9.69;94.94;99872.00;5114021;28;20269;-85
2022/09/17 05:03:48;;;;;;;8.02;1.15;;;;;;;9.68;95.23;99878.56;5096261;28;20031;-89
2022/09/17 05:06:15;;;;;;;4.47;1.35;;;;;;;9.63;95.40;99880.38;5096205;28;20028;-87
2022/09/17 05:08:40;;;;;;;4.22;1.35;;;;;;;9.60;95.81;99882.97;5114225;28;20384;-86
2022/09/17 05:11:06;;;;;;;5.03;1.43;;;;;;;9.57;96.02;99879.00;5113812;28;20026;-85
2022/09/17 05:13:31;;;;;;;5.22;1.40;;;;;;;9.52;96.14;99883.81;5114028;28;20038;-83
2022/09/17 05:15:56;;;;;;;5.20;0.87;;;;;;;9.57;96.13;99889.03;5095835;28;20527;-86
2022/09/17 05:18:22;;;;;;;4.63;1.20;;;;;;;9.51;96.01;99895.81;5095689;28;20118;-86
2022/09/17 05:20:47;;;;;;;4.15;0.98;;;;;;;9.69;95.71;99904.63;5114825;28;20275;-85
2022/09/17 05:23:15;;;;;;;4.88;1.05;;;;;;;9.48;95.88;99901.91;5114537;28;20476;-87
2022/09/17 05:25:40;;;;;;;6.53;1.08;;;;;;;9.42;96.31;99904.06;5095639;28;20073;-84
2022/09/17 05:28:06;;;;;;;3.70;1.57;;;;;;;9.43;96.69;99899.41;5113661;28;20458;-84
2022/09/17 05:30:31;;;;;;;12.45;1.95;;;;;;;9.47;96.84;99911.19;5113694;28;20492;-85
2022/09/17 05:33:06;;;;;;;9.02;1.52;;;;;;;9.40;97.15;99908.19;5095635;28;20027;-85
2022/09/17 05:35:32;;;;;;;5.63;1.25;;;;;;;9.47;97.29;99909.28;5114331;28;20031;-83
2022/09/17 05:37:59;;;;;;;4.45;0.98;;;;;;;9.50;97.09;99896.94;5114785;28;20378;-84
2022/09/17 05:40:26;;;;;;;6.38;1.17;;;;;;;9.47;97.14;99895.69;5114893;28;20050;-86
2022/09/17 05:42:51;;;;;;;4.82;1.48;;;;;;;9.43;96.74;99894.78;5114546;28;20098;-84
2022/09/17 05:45:17;;;;;;;9.77;1.20;;;;;;;9.46;97.07;99898.75;5095571;28;20479;-84
2022/09/17 05:47:42;;;;;;;5.20;1.13;;;;;;;9.41;97.30;99899.75;5113441;28;20028;-84
2022/09/17 05:50:08;;;;;;;3.60;0.90;;;;;;;9.46;96.90;99904.19;5113186;28;20417;-84
2022/09/17 05:52:33;;;;;;;5.25;1.70;;;;;;;9.46;96.72;99904.97;5113008;28;20125;-85
2022/09/17 05:55:04;;;;;;;5.33;1.10;;;;;;;9.50;96.66;99899.66;5115606;28;20063;-87
2022/09/17 05:57:30;;;;;;;7.28;1.85;;;;;;;9.48;96.69;99904.63;5118200;28;20265;-85
2022/09/17 05:59:55;;;;;;;5.23;0.90;;;;;;;9.54;95.76;99912.25;5095934;28;20057;-83
2022/09/17 06:02:20;;;;;;;7.57;1.43;;;;;;;9.54;95.44;99911.44;5117017;28;20096;-84
2022/09/17 06:04:46;;;;;;;6.50;0.97;;;;;;;9.51;95.89;99923.00;5114291;28;20261;-86
2022/09/17 06:07:11;;;;;;;4.77;1.23;;;;;;;9.63;95.42;99925.78;5114380;28;20031;-85
2022/09/17 06:09:37;;;;;;;3.70;1.50;;;;;;;9.72;95.58;99934.66;5095222;28;20409;-87
2022/09/17 06:12:03;;;;;;;6.35;1.17;;;;;;;9.59;95.81;99935.75;5095308;28;20108;-87
2022/09/17 06:14:29;;;;;;;3.72;1.17;;;;;;;9.86;94.88;99937.88;5096331;28;20050;-87
2022/09/17 06:16:56;;;;;;;2.85;1.20;;;;;;;9.88;94.81;99940.25;5114267;28;20496;-88
2022/09/17 06:19:21;;;;;;;6.38;1.40;;;;;;;9.72;95.14;99933.84;5114658;28;20019;-87
2022/09/17 06:21:49;;;;;;;5.43;1.00;;;;;;;9.60;95.87;99943.56;5113183;28;20027;-86
2022/09/17 06:24:14;;;;;;;7.30;1.55;;;;;;;9.64;96.83;99949.13;5095480;28;20503;-85
2022/09/17 06:26:40;;;;;;;4.53;1.00;;;;;;;9.65;95.82;99956.16;5095883;28;20023;-87
2022/09/17 06:29:05;;;;;;;3.30;1.63;;;;;;;9.56;95.99;99956.19;5097193;28;20448;-84
2022/09/17 06:31:30;;;;;;;3.00;1.00;;;;;;;9.59;96.49;99958.28;5114019;28;20031;-84
2022/09/17 06:33:56;;;;;;;4.97;1.37;;;;;;;9.76;96.20;99967.44;5112205;28;20784;-85
2022/09/17 06:36:21;;;;;;;5.43;1.35;;;;;;;9.78;94.80;99959.72;5094178;28;20016;-85
2022/09/17 06:38:48;;;;;;;2.92;1.10;;;;;;;9.77;94.46;99958.94;5077464;28;20549;-86
2022/09/17 06:41:15;;;;;;;4.77;1.07;;;;;;;9.62;95.75;99968.47;5112396;28;20110;-86
2022/09/17 06:43:41;;;;;;;4.80;1.05;;;;;;;9.63;97.52;99974.72;5112268;28;20753;-85
2022/09/17 06:46:07;;;;;;;2.85;0.88;;;;;;;9.74;95.16;99975.09;5094140;28;20036;-85
2022/09/17 06:48:34;;;;;;;5.82;1.27;;;;;;;9.58;96.06;99966.75;5112479;28;20085;-84
2022/09/17 06:51:05;;;;;;;5.00;1.15;;;;;;;9.76;95.30;99961.97;5094064;28;20041;-84
2022/09/17 06:53:31;;;;;;;2.63;0.82;;;;;;;9.82;95.90;99955.22;5112555;28;20023;-85
2022/09/17 06:55:58;;;;;;;4.68;1.27;;;;;;;9.72;95.45;99956.41;5093986;28;20053;-85
2022/09/17 06:58:24;;;;;;;7.00;1.00;;;;;;;9.72;95.86;99956.41;5094100;28;20119;-84
2022/09/17 07:00:50;;;;;;;6.32;1.33;;;;;;;9.70;95.13;99964.09;5094295;28;20065;-85
2022/09/17 07:03:15;;;;;;;4.55;1.90;;;;;;;9.88;96.77;99960.09;5112299;28;20028;-85
2022/09/17 07:05:43;;;;;;;4.47;1.33;;;;;;;9.80;95.17;99963.69;5093892;28;20031;-84
2022/09/17 07:08:09;;;;;;;3.58;1.40;;;;;;;10.04;94.88;99960.28;5112180;28;20031;-84
2022/09/17 07:10:36;;;;;;;6.78;1.40;;;;;;;10.31;93.21;99963.56;5112506;28;20046;-84
2022/09/17 07:13:01;;;;;;;7.10;1.55;;;;;;;10.12;93.67;99964.84;5112587;28;20024;-84
2022/09/17 07:15:27;;;;;;;8.20;1.60;;;;;;;10.12;93.35;99961.34;5112479;28;20046;-83
2022/09/17 07:17:52;;;;;;;5.57;1.13;;;;;;;10.29;92.78;99963.91;5112596;28;20125;-84
2022/09/17 07:20:18;;;;;;;4.35;1.00;;;;;;;10.26;92.21;99961.88;5112682;28;20157;-84
2022/09/17 07:22:44;;;;;;;;;;;;;;;10.43;92.34;99960.91;5113838;28;20034;-83
2022/09/17 07:25:10;;;;;;;8.77;0.90;;;;;;;10.48;91.06;99950.56;5113095;28;19986;-85
2022/09/17 07:27:36;;;;;;;3.85;1.30;;;;;;;10.63;90.02;99953.78;5095223;28;20483;-84
2022/09/17 07:30:04;;;;;;;5.13;1.27;;;;;;;10.65;90.53;99967.84;5113546;28;20036;-84
2022/09/17 07:32:30;;;;;;;5.75;1.27;;;;;;;10.64;89.27;99969.78;5080093;28;20032;-85
2022/09/17 07:34:56;;;;;;;3.95;0.85;;;;;;;10.92;87.97;99963.66;5117431;28;20092;-85
2022/09/17 07:37:21;;;;;;;5.72;1.30;;;;;;;11.22;87.88;99964.22;5116107;28;20480;-83
2022/09/17 07:39:46;;;;;;;4.68;1.20;;;;;;;11.04;88.43;99971.81;5115549;28;20411;-83
2022/09/17 07:42:12;;;;;;;3.85;0.90;;;;;;;11.34;89.44;99964.19;5097557;28;20080;-83
2022/09/17 07:44:37;;;;;;;5.72;1.17;;;;;;;10.90;87.63;99960.47;5097293;28;20451;-84
2022/09/17 07:47:04;;;;;;;2.80;0.93;;;;;;;10.76;86.26;99956.19;5115631;28;20456;-84
2022/09/17 07:49:30;;;;;;;3.70;1.13;;;;;;;11.07;85.36;99961.03;5115969;28;20031;-84
2022/09/17 07:51:58;;;;;;;5.93;1.10;;;;;;;10.84;85.73;99955.25;5115518;28;20187;-85
2022/09/17 07:54:24;;;;;;;5.20;1.00;;;;;;;11.09;86.34;99964.25;5115727;28;20374;-87
2022/09/17 07:56:49;;;;;;;6.43;1.38;;;;;;;11.17;83.36;99956.28;5115873;28;20043;-84
2022/09/17 07:59:16;;;;;;;4.63;0.70;;;;;;;11.02;84.91;99964.00;5097131;28;20023;-83
2022/09/17 08:01:41;;;;;;;4.10;1.10;;;;;;;10.99;83.64;99958.44;5115795;28;20289;-86
2022/09/17 08:04:09;;;;;;;3.87;0.73;;;;;;;10.99;83.21;99961.97;5096959;28;20403;-85
2022/09/17 08:06:36;;;;;;;2.95;0.98;;;;;;;11.16;82.53;99969.09;5097943;28;20384;-83
2022/09/17 08:09:03;;;;;;;4.97;0.90;;;;;;;11.27;82.22;99970.25;5117162;28;20046;-92
2022/09/17 08:11:30;;;;;;;6.22;1.35;;;;;;;11.22;79.84;99973.19;5116934;28;20520;-88
2022/09/17 08:13:55;;;;;;;2.33;0.70;;;;;;;11.26;79.59;99968.66;5098339;28;20036;-89
2022/09/17 08:16:22;;;;;;;5.95;1.33;;;;;;;11.41;79.32;99964.41;5116919;28;20806;-85
2022/09/17 08:18:48;;;;;;;3.13;0.98;;;;;;;11.75;80.38;99958.41;5118688;28;20486;-90
2022/09/17 08:21:17;;;;;;;4.57;1.30;;;;;;;11.67;77.88;99967.53;5115834;28;20028;-85
2022/09/17 08:23:43;;;;;;;5.40;1.35;;;;;;;11.67;77.38;99962.09;5117277;28;20027;-87
2022/09/17 08:26:14;;;;;;;6.82;1.33;;;;;;;11.61;77.60;99974.38;5116145;28;20532;-87
2022/09/17 08:28:44;;;;;;;3.85;1.13;;;;;;;11.61;77.09;99960.75;5115374;28;20030;-87
2022/09/17 08:31:10;;;;;;;6.80;1.48;;;;;;;12.23;76.67;99961.31;5114853;28;20023;-88
2022/09/17 08:33:39;;;;;;;5.65;0.93;;;;;;;11.90;76.01;99967.03;5096551;28;20038;-85
2022/09/17 08:36:06;;;;;;;3.45;0.90;;;;;;;11.94;76.38;99966.00;5114824;28;20030;-89
2022/09/17 08:38:35;;;;;;;4.45;1.25;;;;;;;12.31;76.16;99954.91;5093538;28;20496;-89
2022/09/17 08:41:10;;;;;;;4.85;0.95;;;;;;;12.20;73.54;99959.28;5093044;28;20221;-85
2022/09/17 08:43:45;;;;;;;6.15;0.80;;;;;;;12.24;73.71;99965.63;5092055;28;20024;-89
2022/09/17 08:46:11;;;;;;;2.05;0.57;;;;;;;12.32;74.07;99965.47;5094537;28;20061;-84
2022/09/17 08:48:42;;;;;;;8.43;1.05;;;;;;;12.41;74.33;99964.50;5094878;28;20366;-85
2022/09/17 08:51:27;;;;;;;4.15;0.93;;;;;;;12.40;74.80;99965.66;5094330;28;20028;-85
2022/09/17 08:54:12;;;;;;;3.47;1.05;;;;;;;12.54;72.09;99966.03;5092492;28;20035;-85
2022/09/17 08:56:41;;;;;;;2.22;0.65;;;;;;;12.63;72.43;99970.19;5094116;28;20103;-83
2022/09/17 08:59:24;;;;;;;5.00;0.93;;;;;;;12.44;72.58;99969.28;5092722;28;20024;-86
2022/09/17 09:02:15;;;;;;;4.05;0.80;;;;;;;12.17;70.26;99966.25;5092665;28;20043;-84
2022/09/17 09:04:48;;;;;;;3.45;1.10;;;;;;;12.23;69.95;99975.75;5092746;28;20020;-85
2022/09/17 09:07:25;;;;;;;1.90;0.63;;;;;;;12.40;69.75;99966.44;5093596;28;20158;-83
2022/09/17 09:10:11;;;;;;;3.38;1.17;;;;;;;12.57;69.30;99968.06;5093731;28;20511;-83
2022/09/17 09:12:40;;;;;;;3.10;0.68;;;;;;;12.74;68.22;99961.44;5092189;28;20150;-87
2022/09/17 09:15:20;;;;;;;1.95;0.70;;;;;;;12.82;66.47;99961.28;5093648;28;20499;-84
2022/09/17 09:17:49;;;;;;;0.77;0.30;;;;;;;12.92;67.07;99966.19;5093621;28;20478;-88
2022/09/17 09:20:31;;;;;;;1.73;0.55;;;;;;;13.01;65.88;99966.03;5093375;28;20028;-86
2022/09/17 09:23:01;;;;;;;3.75;0.65;;;;;;;13.08;64.68;99965.41;5093539;28;20154;-84
2022/09/17 09:25:35;;;;;;;3.17;1.00;;;;;;;13.22;65.41;99957.56;5092304;28;20526;-87
2022/09/17 09:28:36;;;;;;;1.40;0.60;;;;;;;13.00;64.37;99963.66;5093875;28;20024;-84
2022/09/17 09:31:04;;;;;;;1.40;0.20;;;;;;;13.01;63.49;99967.97;5091057;28;20036;-86
2022/09/17 09:33:38;;;;;;;1.85;0.50;;;;;;;13.26;62.57;99966.63;5093423;28;20028;-84
2022/09/17 09:36:10;;;;;;;0.88;0.30;;;;;;;13.15;63.19;99960.91;5091902;28;20027;-82
2022/09/17 09:39:00;;;;;;;0.57;0.28;;;;;;;13.21;63.53;99958.72;5097890;28;20043;-84
2022/09/17 09:41:30;;;;;;;3.35;0.98;;;;;;;13.19;64.55;99969.22;5095003;28;20122;-84
2022/09/17 09:44:11;;;;;;;0.65;0.30;;;;;;;13.36;62.91;99971.56;5095413;28;20096;-86
2022/09/17 09:47:11;;;;;;;2.00;0.45;;;;;;;13.83;62.90;99951.47;5114342;28;20021;-85
2022/09/17 09:49:55;;;;;;;3.22;0.60;;;;;;;13.46;63.03;99960.06;5095186;28;20050;-85
2022/09/17 09:52:35;;;;;;;2.10;0.93;;;;;;;13.25;62.88;99951.38;5114117;28;20055;-87
2022/09/17 09:55:27;;;;;;;4.40;0.40;;;;;;;13.13;64.50;99967.88;5093816;28;20023;-85
2022/09/17 09:58:02;;;;;;;1.95;0.32;;;;;;;13.09;65.09;99958.78;5113709;28;20464;-85
2022/09/17 10:00:37;;;;;;;4.35;0.98;;;;;;;12.72;69.27;99970.00;5114394;28;20050;-87
2022/09/17 10:03:16;;;;;;;2.80;0.43;;;;;;;12.43;74.01;99979.44;5094969;28;20032;-86
2022/09/17 10:06:02;;;;;;;2.03;0.50;;;;;;;11.97;76.70;99970.75;5095143;28;20020;-88
2022/09/17 10:08:39;;;;;;;1.77;0.40;;;;;;;11.64;78.75;99983.81;5095973;28;20019;-90
2022/09/17 10:11:19;;;;;;;4.65;0.40;;;;;;;11.34;78.94;99978.63;5109929;28;20479;-87
2022/09/17 10:13:45;;;;;;;3.60;0.80;;;;;;;11.22;77.63;99975.09;5112831;28;20027;-85
2022/09/17 10:16:24;;;;;;;2.28;0.55;;;;;;;11.30;78.15;99969.56;5093908;28;20373;-83
2022/09/17 10:19:07;;;;;;;1.42;0.50;;;;;;;11.49;77.54;99966.22;5112851;28;20031;-84
2022/09/17 10:21:40;;;;;;;0.93;0.25;;;;;;;11.77;78.52;99962.75;5112729;28;20035;-83
2022/09/17 10:24:25;;;;;;;1.65;0.52;;;;;;;12.19;77.16;99955.75;5112762;28;20064;-84
2022/09/17 10:27:01;;;;;;;2.70;0.60;;;;;;;12.30;74.76;99947.88;5112884;28;20028;-83
2022/09/17 10:29:27;;;;;;;3.53;0.60;;;;;;;12.45;73.24;99946.31;5112570;28;20030;-83
2022/09/17 10:31:53;;;;;;;;;;;;;;;12.69;73.90;99951.59;5094809;28;20031;-83
2022/09/17 10:34:27;;;;;;;3.28;0.98;;;;;;;12.79;73.69;99947.56;5112757;28;19908;-81
2022/09/17 10:36:55;;;;;;;1.25;0.70;;;;;;;12.91;72.47;99948.22;5112467;28;20475;-83
2022/09/17 10:39:43;;;;;;;3.25;0.75;;;;;;;12.73;72.72;99947.00;5093967;28;20070;-86
2022/09/17 10:42:13;;;;;;;2.20;0.85;;;;;;;12.66;74.80;99952.31;5094223;28;20035;-83
2022/09/17 10:44:51;;;;;;;3.45;0.80;;;;;;;12.55;76.13;99948.50;5112626;28;20024;-84
2022/09/17 10:47:24;;;;;;;2.55;0.70;;;;;;;12.42;73.67;99946.97;5112937;28;20340;-86
2022/09/17 10:50:15;;;;;;;2.58;1.10;;;;;;;12.54;74.65;99950.44;5094286;28;20035;-83
2022/09/17 10:52:47;;;;;;;4.55;0.70;;;;;;;12.51;73.28;99942.16;5112360;28;20032;-82
2022/09/17 10:55:32;;;;;;;2.88;0.60;;;;;;;12.32;73.33;99943.63;5112370;28;20070;-84
2022/09/17 10:58:07;;;;;;;4.25;0.50;;;;;;;12.34;74.30;99938.63;5111903;28;20031;-83
2022/09/17 11:00:54;;;;;;;3.05;0.63;;;;;;;12.29;75.09;99940.81;5112011;28;20051;-83
2022/09/17 11:04:04;;;;;;;2.58;0.60;;;;;;;11.80;75.45;99953.91;5112646;28;20054;-83
2022/09/17 11:06:49;;;;;;;2.08;0.70;;;;;;;11.59;81.64;99976.66;5108261;28;20040;-88
2022/09/17 11:09:54;;;;;;;1.77;0.60;;;;;;;10.96;86.97;99981.72;5117650;28;20015;-90
2022/09/17 11:12:53;;;;;;;3.10;0.75;;;;;;;10.45;90.53;99973.03;5016985;28;20507;-89
2022/09/17 11:15:36;;;;;;;3.08;1.13;;;;;;;10.13;92.15;99955.56;5017211;28;20033;-91
2022/09/17 11:18:32;;;;;;;2.95;1.00;;;;;;;9.71;92.76;99976.56;5100982;28;20090;-89
2022/09/17 11:22:00;;;;;;;2.92;0.70;;;;;;;9.42;94.14;99993.72;5099914;28;20574;-89
2022/09/17 11:24:31;;;;;;;2.10;0.68;;;;;;;9.51;94.12;99988.22;5035284;28;20049;-90
2022/09/17 11:27:34;;;;;;;2.55;0.45;;;;;;;9.37;94.84;99993.91;5103196;28;20488;-89
2022/09/17 11:30:38;;;;;;;3.40;0.65;;;;;;;9.23;95.15;99982.47;5116451;28;20490;-84
2022/09/17 11:33:47;;;;;;;1.65;0.70;;;;;;;9.20;97.50;99983.94;5116501;28;20055;-86
2022/09/17 11:36:19;;;;;;;2.83;0.40;;;;;;;9.15;96.39;99975.97;5097736;28;20049;-86
2022/09/17 11:38:49;;;;;;;1.27;0.40;;;;;;;9.26;96.27;99977.22;5116314;28;20044;-90
2022/09/17 11:41:26;;;;;;;2.40;0.30;;;;;;;9.31;95.07;99978.94;5098049;28;20059;-92
2022/09/17 11:44:10;;;;;;;0.68;0.40;;;;;;;9.33;97.05;99974.75;5109357;28;20023;-81
2022/09/17 11:46:47;;;;;;;1.48;0.30;;;;;;;9.30;94.35;99969.19;5097099;28;20032;-84
2022/09/17 11:49:29;;;;;;;1.55;0.57;;;;;;;9.45;93.32;99971.31;5115951;28;20456;-85
2022/09/17 11:52:12;;;;;;;1.98;0.50;;;;;;;9.62;94.08;99960.31;5080483;28;20409;-82
2022/09/17 11:54:49;;;;;;;3.30;0.40;;;;;;;9.77;91.51;99956.22;5116034;28;20024;-80
2022/09/17 11:57:20;;;;;;;0.85;0.35;;;;;;;9.77;89.52;99956.22;5115509;28;20020;-83
2022/09/17 12:00:06;;;;;;;0.93;0.35;;;;;;;9.94;90.88;99956.06;5115599;28;20034;-81
2022/09/17 12:03:06;;;;;;;1.57;0.60;;;;;;;10.36;93.16;99955.19;5115837;28;20034;-80
2022/09/17 12:05:56;;;;;;;0.35;0.20;;;;;;;10.68;91.87;99962.50;5080061;28;20109;-82